createdAt,value
2018-11-04T00:00:56.365Z,98798.73
2018-11-04T00:03:27.323Z,98791.05
2018-11-04T00:05:57.974Z,98799.22
2018-11-04T00:08:28.647Z,98792.43
2018-11-04T00:10:59.229Z,98787.70
2018-11-04T00:13:29.834Z,98783.72
2018-11-04T00:16:00.327Z,98782.88
2018-11-04T00:18:30.725Z,98785.47
2018-11-04T00:21:01.209Z,98772.83
2018-11-04T00:23:31.756Z,98783.20
2018-11-04T00:26:02.226Z,98780.39
2018-11-04T00:31:13.556Z,98773.78
2018-11-04T00:33:44.236Z,98770.58
2018-11-04T00:36:14.813Z,98757.50
2018-11-04T00:38:45.392Z,98762.59
2018-11-04T00:41:15.758Z,98762.23
2018-11-04T00:43:46.338Z,98757.73
2018-11-04T00:46:16.798Z,98761.39
2018-11-04T00:48:47.586Z,98756.86
2018-11-04T00:51:18.467Z,98756.50
2018-11-04T00:53:48.953Z,98750.48
2018-11-04T00:56:19.582Z,98751.47
2018-11-04T00:58:50.077Z,98746.83
2018-11-04T01:01:20.641Z,98744.64
2018-11-04T01:03:51.201Z,98742.73
2018-11-04T01:06:21.720Z,98736.80
2018-11-04T01:08:52.477Z,98736.17
2018-11-04T01:11:23.023Z,98737.11
2018-11-04T01:13:53.492Z,98732.16
2018-11-04T01:16:24.158Z,98737.55
2018-11-04T01:18:55.076Z,98739.16
2018-11-04T01:21:25.622Z,98735.95
2018-11-04T01:28:57.677Z,98730.02
2018-11-04T01:31:28.197Z,98724.92
2018-11-04T01:33:59.792Z,98732.51
2018-11-04T01:36:30.250Z,98733.75
2018-11-04T01:39:00.786Z,98736.39
2018-11-04T01:41:31.315Z,98733.45
2018-11-04T01:44:01.878Z,98733.45
2018-11-04T01:46:32.606Z,98732.91
2018-11-04T01:49:03.151Z,98726.05
2018-11-04T01:51:33.680Z,98722.47
2018-11-04T01:54:04.139Z,98720.19
2018-11-04T01:56:34.663Z,98718.50
2018-11-04T01:59:05.141Z,98712.52
2018-11-04T02:01:35.574Z,98717.75
2018-11-04T02:04:06.389Z,98712.34
2018-11-04T02:06:36.944Z,98711.36
2018-11-04T02:09:10.307Z,98711.81
2018-11-04T02:11:40.975Z,98709.30
2018-11-04T02:14:11.455Z,98708.55
2018-11-04T02:16:42.234Z,98709.08
2018-11-04T02:19:13.055Z,98711.22
2018-11-04T02:21:43.606Z,98708.41
2018-11-04T02:24:14.139Z,98714.03
2018-11-04T02:26:45.345Z,98712.43
2018-11-04T02:29:16.659Z,98713.58
2018-11-04T02:31:47.465Z,98708.23
2018-11-04T02:34:17.892Z,98712.52
2018-11-04T02:39:30.193Z,98712.03
2018-11-04T02:42:00.656Z,98710.83
2018-11-04T02:47:11.165Z,98706.41
2018-11-04T02:49:41.594Z,98714.70
2018-11-04T02:52:12.439Z,98710.45
2018-11-04T02:54:42.858Z,98712.73
2018-11-04T02:57:13.428Z,98714.25
2018-11-04T02:59:44.525Z,98720.27
2018-11-04T03:02:15.721Z,98718.53
2018-11-04T03:04:46.509Z,98716.97
2018-11-04T03:07:17.104Z,98722.45
2018-11-04T03:09:47.649Z,98716.59
2018-11-04T03:12:18.106Z,98716.06
2018-11-04T03:14:48.537Z,98720.41
2018-11-04T03:17:18.951Z,98718.13
2018-11-04T03:19:49.599Z,98717.28
2018-11-04T03:22:20.124Z,98711.97
2018-11-04T03:24:50.726Z,98715.61
2018-11-04T03:27:21.277Z,98717.11
2018-11-04T03:29:51.749Z,98714.74
2018-11-04T03:32:22.238Z,98715.72
2018-11-04T03:34:52.826Z,98715.66
2018-11-04T03:37:23.382Z,98721.17
2018-11-04T03:39:53.893Z,98724.07
2018-11-04T03:42:24.411Z,98720.51
2018-11-04T03:44:55.344Z,98719.42
2018-11-04T03:47:26.586Z,98718.11
2018-11-04T03:49:57.555Z,98723.52
2018-11-04T03:52:28.090Z,98715.89
2018-11-04T03:54:58.732Z,98713.94
2018-11-04T03:57:29.167Z,98721.25
2018-11-04T03:59:59.743Z,98720.11
2018-11-04T04:02:30.212Z,98725.81
2018-11-04T04:05:01.021Z,98723.45
2018-11-04T04:07:31.630Z,98721.88
2018-11-04T04:10:02.000Z,98717.99
2018-11-04T04:12:32.454Z,98719.90
2018-11-04T04:15:03.080Z,98723.78
2018-11-04T04:17:33.640Z,98723.45
2018-11-04T04:20:04.121Z,98721.03
2018-11-04T04:22:34.721Z,98716.23
2018-11-04T04:25:05.294Z,98719.77
2018-11-04T04:27:35.836Z,98719.58
2018-11-04T04:30:08.149Z,98724.22
2018-11-04T04:32:38.625Z,98722.03
2018-11-04T04:35:10.086Z,98723.33
2018-11-04T04:37:40.972Z,98713.97
2018-11-04T04:40:11.795Z,98717.39
2018-11-04T04:42:42.253Z,98723.45
2018-11-04T04:45:12.862Z,98721.17
2018-11-04T04:47:43.398Z,98723.52
2018-11-04T04:50:13.918Z,98728.45
2018-11-04T04:52:44.354Z,98728.98
2018-11-04T04:55:14.859Z,98738.27
2018-11-04T04:57:45.280Z,98745.98
2018-11-04T05:00:16.312Z,98746.32
2018-11-04T05:02:46.765Z,98745.59
2018-11-04T05:05:17.478Z,98753.47
2018-11-04T05:07:47.986Z,98757.23
2018-11-04T05:10:18.528Z,98766.42
2018-11-04T05:12:49.013Z,98763.16
2018-11-04T05:15:20.347Z,98770.98
2018-11-04T05:17:50.848Z,98769.91
2018-11-04T05:23:00.486Z,98765.75
2018-11-04T05:25:30.964Z,98774.14
2018-11-04T05:28:01.480Z,98785.48
2018-11-04T05:30:31.964Z,98779.39
2018-11-04T05:33:02.443Z,98786.09
2018-11-04T05:35:33.873Z,98785.41
2018-11-04T05:38:04.418Z,98784.20
2018-11-04T05:40:35.133Z,98784.48
2018-11-04T05:43:05.771Z,98786.62
2018-11-04T05:45:36.247Z,98788.31
2018-11-04T05:48:06.909Z,98793.84
2018-11-04T05:50:38.215Z,98795.13
2018-11-04T05:53:08.706Z,98792.19
2018-11-04T05:55:40.117Z,98798.63
2018-11-04T05:58:10.579Z,98799.16
2018-11-04T06:00:41.109Z,98805.26
2018-11-04T06:03:11.623Z,98805.26
2018-11-04T06:08:21.212Z,98807.38
2018-11-04T06:13:37.857Z,98816.70
2018-11-04T06:16:08.772Z,98812.16
2018-11-04T06:18:39.263Z,98816.06
2018-11-04T06:21:09.873Z,98812.86
2018-11-04T06:23:40.306Z,98819.56
2018-11-04T06:26:10.868Z,98822.16
2018-11-04T06:28:41.302Z,98818.44
2018-11-04T06:31:11.856Z,98827.27
2018-11-04T06:33:42.360Z,98822.16
2018-11-04T06:36:12.739Z,98817.53
2018-11-04T06:38:43.294Z,98819.44
2018-11-04T06:41:13.801Z,98821.13
2018-11-04T06:43:44.175Z,98822.02
2018-11-04T06:46:14.678Z,98814.44
2018-11-04T06:48:45.204Z,98818.36
2018-11-04T06:51:15.759Z,98827.17
2018-11-04T06:53:46.216Z,98826.59
2018-11-04T06:56:16.751Z,98827.35
2018-11-04T06:58:47.350Z,98827.48
2018-11-04T07:01:17.789Z,98821.77
2018-11-04T07:03:58.901Z,98814.69
2018-11-04T07:06:29.901Z,98817.03
2018-11-04T07:09:00.622Z,98821.18
2018-11-04T07:11:31.248Z,98815.20
2018-11-04T07:14:01.674Z,98816.02
2018-11-04T07:16:32.091Z,98813.62
2018-11-04T07:19:02.467Z,98808.98
2018-11-04T07:21:33.150Z,98812.01
2018-11-04T07:24:04.109Z,98812.85
2018-11-04T07:26:34.927Z,98814.60
2018-11-04T07:29:05.690Z,98812.95
2018-11-04T07:31:36.573Z,98808.16
2018-11-04T07:34:07.393Z,98806.16
2018-11-04T07:36:37.860Z,98801.88
2018-11-04T07:39:10.977Z,98805.18
2018-11-04T07:41:41.626Z,98806.87
2018-11-04T07:44:12.996Z,98809.53
2018-11-04T07:46:43.496Z,98808.06
2018-11-04T07:49:14.007Z,98810.21
2018-11-04T07:51:44.880Z,98810.95
2018-11-04T07:54:15.561Z,98812.61
2018-11-04T07:56:46.489Z,98815.80
2018-11-04T07:59:16.965Z,98817.68
2018-11-04T08:01:47.417Z,98817.57
2018-11-04T08:04:17.907Z,98817.28
2018-11-04T08:06:48.447Z,98825.27
2018-11-04T08:09:18.826Z,98814.66
2018-11-04T08:11:49.473Z,98814.80
2018-11-04T08:14:20.078Z,98805.52
2018-11-04T08:16:50.513Z,98808.63
2018-11-04T08:19:20.984Z,98811.39
2018-11-04T08:21:51.478Z,98810.84
2018-11-04T08:24:22.009Z,98810.44
2018-11-04T08:26:52.470Z,98816.16
2018-11-04T08:29:22.957Z,98810.34
2018-11-04T08:31:53.822Z,98808.11
2018-11-04T08:34:24.262Z,98807.72
2018-11-04T08:36:54.842Z,98814.38
2018-11-04T08:39:25.418Z,98812.16
2018-11-04T08:41:56.611Z,98814.35
2018-11-04T08:44:27.032Z,98811.86
2018-11-04T08:46:57.591Z,98808.98
2018-11-04T08:49:27.987Z,98812.71
2018-11-04T08:51:58.633Z,98810.11
2018-11-04T08:54:29.202Z,98811.80
2018-11-04T08:56:59.648Z,98815.11
2018-11-04T08:59:30.111Z,98810.64
2018-11-04T09:02:00.591Z,98818.19
2018-11-04T09:04:31.063Z,98807.80
2018-11-04T09:07:01.546Z,98805.14
2018-11-04T09:09:32.100Z,98806.45
2018-11-04T09:12:03.640Z,98808.72
2018-11-04T09:14:34.242Z,98802.22
2018-11-04T09:17:04.753Z,98801.59
2018-11-04T09:19:35.221Z,98803.97
2018-11-04T09:22:06.933Z,98800.29
2018-11-04T09:24:37.418Z,98802.20
2018-11-04T09:27:08.009Z,98806.23
2018-11-04T09:29:38.567Z,98795.38
2018-11-04T09:32:09.211Z,98795.09
2018-11-04T09:34:39.733Z,98796.67
2018-11-04T09:37:10.250Z,98797.52
2018-11-04T09:39:40.725Z,98790.12
2018-11-04T09:42:11.578Z,98794.14
2018-11-04T09:44:42.264Z,98789.48
2018-11-04T09:47:12.899Z,98788.55
2018-11-04T09:49:43.458Z,98786.00
2018-11-04T09:52:14.126Z,98787.94
2018-11-04T09:54:44.604Z,98781.02
2018-11-04T09:57:15.131Z,98782.60
2018-11-04T09:59:45.548Z,98781.27
2018-11-04T10:02:16.884Z,98777.21
2018-11-04T10:04:47.582Z,98780.29
2018-11-04T10:07:18.297Z,98766.45
2018-11-04T10:09:48.811Z,98767.50
2018-11-04T10:12:19.595Z,98764.15
2018-11-04T10:14:50.322Z,98761.06
2018-11-04T10:17:20.884Z,98758.92
2018-11-04T10:19:51.592Z,98757.18
2018-11-04T10:22:21.904Z,98753.23
2018-11-04T10:24:52.954Z,98758.58
2018-11-04T10:27:23.359Z,98752.27
2018-11-04T10:29:53.868Z,98754.08
2018-11-04T10:32:24.608Z,98749.31
2018-11-04T10:34:55.276Z,98745.50
2018-11-04T10:37:25.934Z,98746.50
2018-11-04T10:39:56.428Z,98742.30
2018-11-04T10:42:27.037Z,98741.77
2018-11-04T10:44:57.482Z,98744.66
2018-11-04T10:47:28.009Z,98743.98
2018-11-04T10:49:58.569Z,98742.84
2018-11-04T10:52:29.115Z,98740.22
2018-11-04T10:54:59.605Z,98738.48
2018-11-04T10:57:30.173Z,98735.91
2018-11-04T11:00:00.653Z,98741.89
2018-11-04T11:02:31.147Z,98728.59
2018-11-04T11:05:01.624Z,98739.02
2018-11-04T11:07:32.434Z,98735.37
2018-11-04T11:10:03.053Z,98729.78
2018-11-04T11:12:33.725Z,98728.08
2018-11-04T11:15:04.237Z,98727.77
2018-11-04T11:17:34.725Z,98729.20
2018-11-04T11:20:05.580Z,98729.55
2018-11-04T11:22:36.238Z,98723.95
2018-11-04T11:25:07.262Z,98718.25
2018-11-04T11:27:37.682Z,98724.05
2018-11-04T11:30:08.327Z,98722.63
2018-11-04T11:32:38.935Z,98719.66
2018-11-04T11:35:09.603Z,98728.79
2018-11-04T11:37:40.137Z,98732.43
2018-11-04T11:40:11.052Z,98723.02
2018-11-04T11:42:41.789Z,98715.95
2018-11-04T11:45:12.249Z,98719.74
2018-11-04T11:47:42.669Z,98726.24
2018-11-04T11:50:13.101Z,98717.79
2018-11-04T11:52:43.767Z,98723.63
2018-11-04T11:55:14.317Z,98716.09
2018-11-04T11:57:45.036Z,98724.91
2018-11-04T12:00:16.607Z,98723.38
2018-11-04T12:02:47.008Z,98719.07
2018-11-04T12:05:17.494Z,98709.61
2018-11-04T12:07:47.878Z,98715.94
2018-11-04T12:10:18.794Z,98716.03
2018-11-04T12:12:49.397Z,98723.97
2018-11-04T12:15:20.601Z,98715.94
2018-11-04T12:17:51.189Z,98712.55
2018-11-04T12:20:21.822Z,98701.75
2018-11-04T12:22:52.479Z,98706.61
2018-11-04T12:25:23.144Z,98699.23
2018-11-04T12:27:53.654Z,98700.02
2018-11-04T12:30:24.265Z,98706.16
2018-11-04T12:32:54.926Z,98704.20
2018-11-04T12:35:25.581Z,98702.00
2018-11-04T12:37:55.874Z,98701.31
2018-11-04T12:40:26.777Z,98699.78
2018-11-04T12:42:57.210Z,98696.14
2018-11-04T12:45:27.780Z,98692.95
2018-11-04T12:47:58.291Z,98697.30
2018-11-04T12:50:28.999Z,98695.98
2018-11-04T12:52:59.721Z,98691.95
2018-11-04T12:55:30.244Z,98693.83
2018-11-04T12:58:00.681Z,98697.52
2018-11-04T13:00:31.118Z,98697.72
2018-11-04T13:03:01.664Z,98697.84
2018-11-04T13:05:32.165Z,98692.67
2018-11-04T13:08:02.653Z,98689.86
2018-11-04T13:10:33.208Z,98694.31
2018-11-04T13:13:03.904Z,98694.66
2018-11-04T13:15:34.434Z,98689.05
2018-11-04T13:18:04.836Z,98694.80
2018-11-04T13:21:59.269Z,98698.23
2018-11-04T13:24:29.876Z,98695.73
2018-11-04T13:27:00.395Z,98694.16
2018-11-04T13:29:30.926Z,98693.03
2018-11-04T13:32:01.534Z,98696.38
2018-11-04T13:34:32.349Z,98687.48
2018-11-04T13:37:02.925Z,98687.66
2018-11-04T13:39:33.379Z,98692.58
2018-11-04T13:42:03.929Z,98698.37
2018-11-04T13:44:34.432Z,98688.98
2018-11-04T13:47:04.908Z,98685.56
2018-11-04T13:49:35.532Z,98692.34
2018-11-04T13:52:05.975Z,98691.33
2018-11-04T13:54:36.568Z,98688.55
2018-11-04T13:57:07.221Z,98683.79
2018-11-04T13:59:38.018Z,98676.73
2018-11-04T14:02:08.482Z,98681.93
2018-11-04T14:04:38.935Z,98678.12
2018-11-04T14:07:09.573Z,98677.56
2018-11-04T14:09:40.602Z,98673.50
2018-11-04T14:12:11.103Z,98663.48
2018-11-04T14:14:41.833Z,98673.03
2018-11-04T14:17:12.490Z,98674.61
2018-11-04T14:19:43.000Z,98668.84
2018-11-04T14:22:13.512Z,98675.90
2018-11-04T14:24:43.955Z,98674.39
2018-11-04T14:27:14.432Z,98669.76
2018-11-04T14:29:44.778Z,98668.30
2018-11-04T14:32:15.179Z,98670.23
2018-11-04T14:34:45.938Z,98666.21
2018-11-04T14:37:16.422Z,98668.62
2018-11-04T14:39:47.238Z,98671.39
2018-11-04T14:42:17.810Z,98670.23
2018-11-04T14:44:48.350Z,98668.41
2018-11-04T14:47:18.945Z,98666.56
2018-11-04T14:49:49.417Z,98663.80
2018-11-04T14:52:19.835Z,98663.71
2018-11-04T14:54:50.512Z,98661.73
2018-11-04T14:57:20.912Z,98656.64
2018-11-04T14:59:51.474Z,98654.59
2018-11-04T15:02:22.054Z,98656.97
2018-11-04T15:04:52.542Z,98656.70
2018-11-04T15:07:24.036Z,98658.52
2018-11-04T15:09:54.553Z,98662.77
2018-11-04T15:12:25.134Z,98664.16
2018-11-04T15:14:55.997Z,98663.61
2018-11-04T15:17:26.468Z,98666.84
2018-11-04T15:19:56.969Z,98668.24
2018-11-04T15:22:27.481Z,98670.90
2018-11-04T15:24:57.913Z,98667.95
2018-11-04T15:27:28.395Z,98667.56
2018-11-04T15:29:58.847Z,98671.74
2018-11-04T15:32:29.333Z,98672.88
2018-11-04T15:34:59.914Z,98669.41
2018-11-04T15:37:30.404Z,98672.33
2018-11-04T15:40:00.897Z,98668.50
2018-11-04T15:42:31.269Z,98674.98
2018-11-04T15:45:01.722Z,98661.37
2018-11-04T15:47:32.169Z,98668.20
2018-11-04T15:50:02.710Z,98666.66
2018-11-04T15:52:33.261Z,98659.17
2018-11-04T15:55:03.706Z,98664.22
2018-11-04T15:57:34.189Z,98660.23
2018-11-04T16:00:04.839Z,98659.42
2018-11-04T16:02:35.280Z,98650.84
2018-11-04T16:05:06.465Z,98662.13
2018-11-04T16:07:36.957Z,98661.57
2018-11-04T16:10:08.609Z,98655.04
2018-11-04T16:12:39.355Z,98658.93
2018-11-04T16:15:12.234Z,98656.23
2018-11-04T16:17:43.174Z,98655.18
2018-11-04T16:20:14.908Z,98654.13
2018-11-04T16:22:46.180Z,98652.30
2018-11-04T16:25:16.934Z,98660.02
2018-11-04T16:27:47.512Z,98654.84
2018-11-04T16:30:18.005Z,98661.32
2018-11-04T16:32:48.628Z,98659.68
2018-11-04T16:35:19.254Z,98660.33
2018-11-04T16:37:49.710Z,98662.82
2018-11-04T16:40:20.270Z,98655.70
2018-11-04T16:42:50.980Z,98654.95
2018-11-04T16:45:21.511Z,98651.35
2018-11-04T16:47:52.080Z,98656.18
2018-11-04T16:50:22.639Z,98653.55
2018-11-04T16:52:53.191Z,98654.40
2018-11-04T16:55:23.893Z,98656.73
2018-11-04T16:57:54.310Z,98658.18
2018-11-04T17:00:24.844Z,98656.29
2018-11-04T17:02:55.451Z,98654.54
2018-11-04T17:05:26.099Z,98661.68
2018-11-04T17:07:56.646Z,98659.07
2018-11-04T17:10:27.303Z,98657.57
2018-11-04T17:12:57.911Z,98663.86
2018-11-04T17:15:28.626Z,98667.59
2018-11-04T17:17:59.841Z,98662.41
2018-11-04T17:20:30.352Z,98661.88
2018-11-04T17:23:01.922Z,98662.41
2018-11-04T17:25:32.413Z,98651.09
2018-11-04T17:28:03.511Z,98659.98
2018-11-04T17:30:34.041Z,98660.82
2018-11-04T17:33:04.544Z,98663.27
2018-11-04T17:35:35.416Z,98664.86
2018-11-04T17:38:06.217Z,98660.43
2018-11-04T17:40:36.755Z,98665.80
2018-11-04T17:43:07.428Z,98666.35
2018-11-04T17:45:37.954Z,98674.13
2018-11-04T17:48:08.557Z,98669.46
2018-11-04T17:53:19.181Z,98669.10
2018-11-04T17:55:49.776Z,98664.27
2018-11-04T17:58:20.208Z,98664.26
2018-11-04T18:00:50.885Z,98662.51
2018-11-04T18:03:21.299Z,98660.97
2018-11-04T18:05:51.773Z,98664.80
2018-11-04T18:08:22.301Z,98662.45
2018-11-04T18:10:52.790Z,98662.31
2018-11-04T18:13:23.283Z,98661.31
2018-11-04T18:15:53.709Z,98667.94
2018-11-04T18:18:24.222Z,98666.98
2018-11-04T18:20:54.728Z,98670.39
2018-11-04T18:23:25.232Z,98669.94
2018-11-04T18:25:55.962Z,98670.33
2018-11-04T18:28:26.411Z,98668.64
2018-11-04T18:30:57.009Z,98672.19
2018-11-04T18:33:27.389Z,98667.73
2018-11-04T18:35:57.841Z,98667.72
2018-11-04T18:38:28.323Z,98659.95
2018-11-04T18:40:58.971Z,98659.86
2018-11-04T18:43:29.386Z,98662.84
2018-11-04T18:45:59.829Z,98662.45
2018-11-04T18:48:30.351Z,98664.73
2018-11-04T18:51:00.943Z,98662.42
2018-11-04T18:53:31.409Z,98666.52
2018-11-04T18:56:02.290Z,98661.13
2018-11-04T18:58:32.848Z,98665.48
2018-11-04T19:01:03.362Z,98666.33
2018-11-04T19:03:33.840Z,98673.54
2018-11-04T19:06:04.419Z,98667.00
2018-11-04T19:08:34.898Z,98666.42
2018-11-04T19:11:05.674Z,98667.30
2018-11-04T19:13:36.730Z,98669.38
2018-11-04T19:16:08.230Z,98665.70
2018-11-04T19:18:38.753Z,98666.06
2018-11-04T19:21:09.213Z,98672.15
2018-11-04T19:23:39.739Z,98673.78
2018-11-04T19:26:10.256Z,98676.91
2018-11-04T19:28:40.847Z,98678.78
2018-11-04T19:31:11.699Z,98679.27
2018-11-04T19:33:42.228Z,98674.74
2018-11-04T19:36:12.902Z,98675.80
2018-11-04T19:38:43.399Z,98679.08
2018-11-04T19:41:13.931Z,98681.04
2018-11-04T19:43:44.462Z,98678.84
2018-11-04T19:46:14.870Z,98678.99
2018-11-04T19:48:45.691Z,98676.25
2018-11-04T19:51:16.411Z,98675.73
2018-11-04T19:53:46.921Z,98678.48
2018-11-04T19:56:18.033Z,98681.31
2018-11-04T19:58:48.681Z,98677.91
2018-11-04T20:01:19.130Z,98681.58
2018-11-04T20:03:49.644Z,98677.78
2018-11-04T20:06:20.117Z,98677.34
2018-11-04T20:08:55.525Z,98681.38
2018-11-04T20:11:26.121Z,98680.47
2018-11-04T20:14:01.379Z,98684.30
2018-11-04T20:16:32.071Z,98679.69
2018-11-04T20:20:11.009Z,98680.34
2018-11-04T20:22:42.045Z,98677.56
2018-11-04T20:25:17.587Z,98681.55
2018-11-04T20:27:48.085Z,98678.72
2018-11-04T20:30:18.560Z,98677.24
2018-11-04T20:32:54.029Z,98678.84
2018-11-04T20:35:27.605Z,98674.89
2018-11-04T20:37:58.216Z,98675.11
2018-11-04T20:40:33.529Z,98673.03
2018-11-04T20:43:04.029Z,98675.53
2018-11-04T20:45:34.488Z,98675.50
2018-11-04T20:48:09.953Z,98666.72
2018-11-04T20:50:45.278Z,98662.11
2018-11-04T20:53:15.748Z,98662.45
2018-11-04T20:55:51.117Z,98664.67
2018-11-04T20:58:21.825Z,98666.23
2018-11-04T21:00:52.102Z,98666.52
2018-11-04T21:03:22.546Z,98667.13
2018-11-04T21:05:53.077Z,98673.84
2018-11-04T21:08:26.819Z,98666.30
2018-11-04T21:10:57.379Z,98671.16
2018-11-04T21:13:28.412Z,98669.65
2018-11-04T21:15:58.998Z,98674.91
2018-11-04T21:18:29.506Z,98669.64
2018-11-04T21:20:59.866Z,98667.44
2018-11-04T21:23:30.390Z,98669.13
2018-11-04T21:26:00.941Z,98667.08
2018-11-04T21:28:31.526Z,98672.80
2018-11-04T21:31:02.168Z,98665.16
2018-11-04T21:33:32.661Z,98665.34
2018-11-04T21:36:03.133Z,98659.73
2018-11-04T21:38:33.587Z,98659.73
2018-11-04T21:41:04.115Z,98646.27
2018-11-04T21:43:34.840Z,98651.66
2018-11-04T21:46:05.174Z,98652.80
2018-11-04T21:48:36.574Z,98655.77
2018-11-04T21:51:07.196Z,98644.86
2018-11-04T21:53:37.717Z,98643.41
2018-11-04T21:56:08.978Z,98640.82
2018-11-04T21:58:39.585Z,98646.75
2018-11-04T22:01:10.192Z,98643.53
2018-11-04T22:03:40.939Z,98648.20
2018-11-04T22:06:11.512Z,98648.86
2018-11-04T22:08:42.062Z,98642.52
2018-11-04T22:11:12.470Z,98642.03
2018-11-04T22:13:43.122Z,98645.64
2018-11-04T22:16:13.601Z,98638.23
2018-11-04T22:18:44.074Z,98635.28
2018-11-04T22:21:14.615Z,98633.14
2018-11-04T22:23:45.049Z,98630.37
2018-11-04T22:26:15.633Z,98626.81
2018-11-04T22:28:46.828Z,98626.84
2018-11-04T22:31:17.260Z,98627.23
2018-11-04T22:33:47.694Z,98626.30
2018-11-04T22:36:18.220Z,98616.15
2018-11-04T22:38:48.637Z,98621.69
2018-11-04T22:41:19.063Z,98625.34
2018-11-04T22:43:49.551Z,98617.05
2018-11-04T22:46:20.046Z,98619.00
2018-11-04T22:48:50.564Z,98618.47
2018-11-04T22:51:21.153Z,98624.10
2018-11-04T22:53:51.674Z,98620.13
2018-11-04T22:56:22.328Z,98618.27
2018-11-04T22:58:52.751Z,98621.33
2018-11-04T23:01:23.277Z,98617.44
2018-11-04T23:03:53.646Z,98619.67
2018-11-04T23:06:24.281Z,98618.73
2018-11-04T23:08:54.757Z,98619.05
2018-11-04T23:11:25.173Z,98614.07
2018-11-04T23:13:55.939Z,98617.73
2018-11-04T23:16:26.427Z,98616.53
2018-11-04T23:18:57.784Z,98613.73
2018-11-04T23:21:28.261Z,98615.59
